메인 페이지
METAR-TAF:

METAR-TAF

공항 :

Churchill, 매니토바, 캐나다

위도: 58-44N, 경도: 094-04W, 고도: 28m

현재 날씨관측

예보는 12분 전, 21:00시(UTC)에 발표되었습니다.
동남동6kt
온도 3°C
습도 65%
기압 1026 hPa
시정: 24.1km
고도 8000ft 상공 구름 조금

METAR: CYYQ 192100Z 12006KT 15SM FEW080 03/M03 A3031 RMK AC1 AC TR SLP268

시각: 16:12 (21:12 UTC)

예보

예보는 3 시간 33분 전, 17:39시(UTC)에 발표되었습니다.
예보 대상 시간: 19일 18시부터 20일 18시까지 (UTC)
서북서12kt
시정: 10km
고도 2000ft 상공 구름 조금
전환 중
19일 22시부터 19일 24시까지 (UTC)
6kt
전환 중
20일 01시부터 20일 03시까지 (UTC)
12kt
20일 1100시부터 (UTC)
12kt
시정: 10km
고도 6000ft 상공 구름 조금
고도 15000ft 상공 구름 보통

TAF: CYYQ 191739Z 1918/2018 30012KT P6SM FEW020 BECMG 1922/1924 27006KT BECMG 2001/2003 17012KT FM201100 19012KT P6SM FEW060 SCT150 RMK NXT FCST BY 200000Z

4,000개 이상의 공항 관측 자료 및 예보 (METAR 및 TAF 보고).

지도상에서 검색 가능한 기상관측소가 노란 점과 빨간 점으로 표시되어 있습니다.

기상관측소 명을 보려면 표시 위로 마우스를 이동하세요.

날씨 관측과 예보를 보려면 클릭하세요.

지도 변경 : 확대하려면 엑스 표시가 있는 녹색 버튼, 축소하려면 빼기 표시가 있는 녹색 버튼, 다음 페이지의 지도를 보려면 녹색 화살표를 클릭하세요.


METAR-TAF: